sensor_id;sensor_type;location;lat;lon;timestamp;pressure;altitude;pressure_sealevel;temperature;humidity
32237;BME280;18726;44.732;10.550;2023-12-14T00:00:43;100006.38;;;12.28;100.00
32237;BME280;18726;44.732;10.550;2023-12-14T00:03:46;100012.31;;;12.00;100.00
32237;BME280;18726;44.732;10.550;2023-12-14T00:06:50;100007.97;;;11.95;100.00
32237;BME280;18726;44.732;10.550;2023-12-14T00:09:54;100022.69;;;12.24;100.00
32237;BME280;18726;44.732;10.550;2023-12-14T00:12:58;100023.75;;;12.53;100.00
32237;BME280;18726;44.732;10.550;2023-12-14T00:16:02;100026.59;;;12.27;100.00
32237;BME280;18726;44.732;10.550;2023-12-14T00:19:06;100034.69;;;12.20;100.00
32237;BME280;18726;44.732;10.550;2023-12-14T00:22:09;100031.09;;;12.49;100.00
32237;BME280;18726;44.732;10.550;2023-12-14T00:25:13;100034.06;;;12.77;100.00
32237;BME280;18726;44.732;10.550;2023-12-14T00:28:17;100035.56;;;12.71;100.00
32237;BME280;18726;44.732;10.550;2023-12-14T00:31:21;100042.81;;;12.97;100.00
32237;BME280;18726;44.732;10.550;2023-12-14T00:34:25;100051.66;;;12.83;100.00
32237;BME280;18726;44.732;10.550;2023-12-14T00:37:29;100053.28;;;12.14;100.00
32237;BME280;18726;44.732;10.550;2023-12-14T00:40:32;100060.09;;;11.67;100.00
32237;BME280;18726;44.732;10.550;2023-12-14T00:43:36;100058.38;;;11.56;100.00
32237;BME280;18726;44.732;10.550;2023-12-14T00:46:41;100070.72;;;10.97;100.00
32237;BME280;18726;44.732;10.550;2023-12-14T00:49:45;100070.16;;;10.88;100.00
32237;BME280;18726;44.732;10.550;2023-12-14T00:52:49;100068.06;;;11.27;100.00
32237;BME280;18726;44.732;10.550;2023-12-14T00:55:52;100058.28;;;11.48;100.00
32237;BME280;18726;44.732;10.550;2023-12-14T00:58:56;100062.09;;;12.00;100.00
32237;BME280;18726;44.732;10.550;2023-12-14T01:02:00;100063.44;;;12.54;100.00
32237;BME280;18726;44.732;10.550;2023-12-14T01:05:04;100065.97;;;12.33;100.00
32237;BME280;18726;44.732;10.550;2023-12-14T01:08:08;100060.69;;;12.13;100.00
32237;BME280;18726;44.732;10.550;2023-12-14T01:11:12;100070.59;;;11.95;100.00
32237;BME280;18726;44.732;10.550;2023-12-14T01:14:16;100076.16;;;12.06;100.00
32237;BME280;18726;44.732;10.550;2023-12-14T01:17:20;100083.88;;;12.00;100.00
32237;BME280;18726;44.732;10.550;2023-12-14T01:20:23;100084.38;;;11.79;100.00
32237;BME280;18726;44.732;10.550;2023-12-14T01:23:28;100084.09;;;11.62;100.00
32237;BME280;18726;44.732;10.550;2023-12-14T01:26:31;100089.66;;;11.69;100.00
32237;BME280;18726;44.732;10.550;2023-12-14T01:29:35;100091.84;;;11.60;100.00
32237;BME280;18726;44.732;10.550;2023-12-14T01:32:39;100089.47;;;11.55;100.00
32237;BME280;18726;44.732;10.550;2023-12-14T01:35:42;100096.19;;;11.38;100.00
32237;BME280;18726;44.732;10.550;2023-12-14T01:38:46;100096.44;;;11.56;100.00
32237;BME280;18726;44.732;10.550;2023-12-14T01:41:50;100094.50;;;11.79;100.00
32237;BME280;18726;44.732;10.550;2023-12-14T01:44:53;100101.78;;;12.01;100.00
32237;BME280;18726;44.732;10.550;2023-12-14T01:47:57;100107.00;;;11.83;100.00
32237;BME280;18726;44.732;10.550;2023-12-14T01:51:00;100107.00;;;11.87;100.00
32237;BME280;18726;44.732;10.550;2023-12-14T01:54:04;100113.72;;;11.67;100.00
32237;BME280;18726;44.732;10.550;2023-12-14T01:57:08;100118.31;;;11.63;100.00
32237;BME280;18726;44.732;10.550;2023-12-14T02:00:22;100118.69;;;11.61;100.00
32237;BME280;18726;44.732;10.550;2023-12-14T02:03:29;100122.28;;;11.69;100.00
32237;BME280;18726;44.732;10.550;2023-12-14T02:06:33;100123.03;;;11.92;100.00
32237;BME280;18726;44.732;10.550;2023-12-14T02:09:37;100126.06;;;11.87;100.00
32237;BME280;18726;44.732;10.550;2023-12-14T02:12:41;100129.09;;;12.08;100.00
32237;BME280;18726;44.732;10.550;2023-12-14T02:15:45;100145.84;;;12.44;100.00
32237;BME280;18726;44.732;10.550;2023-12-14T02:18:49;100133.31;;;12.73;100.00
32237;BME280;18726;44.732;10.550;2023-12-14T02:21:53;100142.63;;;13.09;100.00
32237;BME280;18726;44.732;10.550;2023-12-14T02:24:57;100139.75;;;13.35;100.00
32237;BME280;18726;44.732;10.550;2023-12-14T02:28:00;100142.53;;;12.98;100.00
32237;BME280;18726;44.732;10.550;2023-12-14T02:31:03;100145.50;;;12.49;100.00
32237;BME280;18726;44.732;10.550;2023-12-14T02:34:07;100145.59;;;12.23;100.00
32237;BME280;18726;44.732;10.550;2023-12-14T02:37:11;100146.16;;;12.05;100.00
32237;BME280;18726;44.732;10.550;2023-12-14T02:40:16;100141.53;;;12.43;100.00
32237;BME280;18726;44.732;10.550;2023-12-14T02:43:20;100143.22;;;12.88;100.00
32237;BME280;18726;44.732;10.550;2023-12-14T02:46:23;100141.75;;;13.01;100.00
32237;BME280;18726;44.732;10.550;2023-12-14T02:49:27;100137.03;;;12.95;100.00
32237;BME280;18726;44.732;10.550;2023-12-14T02:52:32;100141.69;;;12.91;100.00
32237;BME280;18726;44.732;10.550;2023-12-14T02:55:36;100147.13;;;12.91;100.00
32237;BME280;18726;44.732;10.550;2023-12-14T02:58:40;100146.31;;;12.87;100.00
32237;BME280;18726;44.732;10.550;2023-12-14T03:01:44;100150.75;;;13.05;100.00
32237;BME280;18726;44.732;10.550;2023-12-14T03:04:47;100153.53;;;13.09;100.00
32237;BME280;18726;44.732;10.550;2023-12-14T03:07:51;100150.31;;;12.96;100.00
32237;BME280;18726;44.732;10.550;2023-12-14T03:10:55;100143.84;;;12.74;100.00
32237;BME280;18726;44.732;10.550;2023-12-14T03:13:59;100147.13;;;12.91;100.00
32237;BME280;18726;44.732;10.550;2023-12-14T03:17:02;100146.31;;;12.87;100.00
32237;BME280;18726;44.732;10.550;2023-12-14T03:20:07;100151.94;;;13.08;100.00
32237;BME280;18726;44.732;10.550;2023-12-14T03:23:11;100151.78;;;13.27;100.00
32237;BME280;18726;44.732;10.550;2023-12-14T03:26:15;100150.72;;;13.42;100.00
32237;BME280;18726;44.732;10.550;2023-12-14T03:29:19;100158.16;;;13.45;100.00
32237;BME280;18726;44.732;10.550;2023-12-14T03:32:24;100146.84;;;13.03;100.00
32237;BME280;18726;44.732;10.550;2023-12-14T03:35:28;100149.16;;;13.01;100.00
32237;BME280;18726;44.732;10.550;2023-12-14T03:38:32;100155.03;;;13.03;100.00
32237;BME280;18726;44.732;10.550;2023-12-14T03:41:36;100153.84;;;13.04;100.00
32237;BME280;18726;44.732;10.550;2023-12-14T03:44:40;100159.69;;;12.99;100.00
32237;BME280;18726;44.732;10.550;2023-12-14T03:47:43;100160.13;;;13.08;100.00
32237;BME280;18726;44.732;10.550;2023-12-14T03:50:47;100158.13;;;12.98;100.00
32237;BME280;18726;44.732;10.550;2023-12-14T03:53:51;100165.50;;;13.01;100.00
32237;BME280;18726;44.732;10.550;2023-12-14T03:56:55;100173.84;;;13.15;100.00
32237;BME280;18726;44.732;10.550;2023-12-14T03:59:59;100182.69;;;13.05;100.00
32237;BME280;18726;44.732;10.550;2023-12-14T04:03:02;100185.13;;;12.76;100.00
32237;BME280;18726;44.732;10.550;2023-12-14T04:06:06;100192.78;;;12.64;100.00
32237;BME280;18726;44.732;10.550;2023-12-14T04:09:11;100191.91;;;12.56;100.00
32237;BME280;18726;44.732;10.550;2023-12-14T04:12:15;100205.31;;;12.68;100.00
32237;BME280;18726;44.732;10.550;2023-12-14T04:15:18;100202.31;;;12.80;100.00
32237;BME280;18726;44.732;10.550;2023-12-14T04:18:23;100207.72;;;12.77;100.00
32237;BME280;18726;44.732;10.550;2023-12-14T04:21:27;100208.22;;;12.86;100.00
32237;BME280;18726;44.732;10.550;2023-12-14T04:24:31;100214.53;;;12.94;100.00
32237;BME280;18726;44.732;10.550;2023-12-14T04:27:35;100218.84;;;12.95;100.00
32237;BME280;18726;44.732;10.550;2023-12-14T04:30:39;100221.16;;;12.93;100.00
32237;BME280;18726;44.732;10.550;2023-12-14T04:33:43;100228.50;;;12.89;100.00
32237;BME280;18726;44.732;10.550;2023-12-14T04:36:47;100233.72;;;12.67;100.00
32237;BME280;18726;44.732;10.550;2023-12-14T04:39:52;100243.41;;;12.65;100.00
32237;BME280;18726;44.732;10.550;2023-12-14T04:42:55;100244.84;;;12.55;100.00
32237;BME280;18726;44.732;10.550;2023-12-14T04:45:58;100265.09;;;12.58;100.00
32237;BME280;18726;44.732;10.550;2023-12-14T04:49:02;100257.41;;;12.63;100.00
32237;BME280;18726;44.732;10.550;2023-12-14T04:52:06;100258.56;;;12.96;100.00
32237;BME280;18726;44.732;10.550;2023-12-14T04:55:09;100261.72;;;12.98;100.00
32237;BME280;18726;44.732;10.550;2023-12-14T04:58:13;100263.28;;;13.02;100.00
32237;BME280;18726;44.732;10.550;2023-12-14T05:01:17;100270.63;;;12.95;100.00
32237;BME280;18726;44.732;10.550;2023-12-14T05:04:20;100271.94;;;13.08;100.00
32237;BME280;18726;44.732;10.550;2023-12-14T05:07:24;100279.88;;;12.87;100.00
32237;BME280;18726;44.732;10.550;2023-12-14T05:10:28;100294.34;;;12.91;100.00
32237;BME280;18726;44.732;10.550;2023-12-14T05:13:31;100300.44;;;12.80;100.00
32237;BME280;18726;44.732;10.550;2023-12-14T05:16:35;100292.47;;;12.65;100.00
32237;BME280;18726;44.732;10.550;2023-12-14T05:19:39;100289.53;;;12.80;100.00
32237;BME280;18726;44.732;10.550;2023-12-14T05:22:43;100302.75;;;12.78;100.00
32237;BME280;18726;44.732;10.550;2023-12-14T05:25:47;100300.25;;;12.66;100.00
32237;BME280;18726;44.732;10.550;2023-12-14T05:28:51;100314.22;;;12.61;100.00
32237;BME280;18726;44.732;10.550;2023-12-14T05:31:55;100308.84;;;12.68;100.00
32237;BME280;18726;44.732;10.550;2023-12-14T05:34:59;100309.03;;;12.82;100.00
32237;BME280;18726;44.732;10.550;2023-12-14T05:38:03;100311.34;;;12.80;100.00
32237;BME280;18726;44.732;10.550;2023-12-14T05:41:06;100320.25;;;12.77;100.00
32237;BME280;18726;44.732;10.550;2023-12-14T05:44:10;100320.66;;;12.79;100.00
32237;BME280;18726;44.732;10.550;2023-12-14T05:47:14;100324.28;;;13.17;100.00
32237;BME280;18726;44.732;10.550;2023-12-14T05:50:18;100330.88;;;13.49;100.00
32237;BME280;18726;44.732;10.550;2023-12-14T05:53:22;100332.56;;;13.65;100.00
32237;BME280;18726;44.732;10.550;2023-12-14T05:56:26;100331.81;;;13.68;100.00
32237;BME280;18726;44.732;10.550;2023-12-14T05:59:30;100345.97;;;13.40;100.00
32237;BME280;18726;44.732;10.550;2023-12-14T06:02:34;100349.56;;;13.47;100.00
32237;BME280;18726;44.732;10.550;2023-12-14T06:05:39;100359.81;;;13.24;100.00
32237;BME280;18726;44.732;10.550;2023-12-14T06:08:43;100366.63;;;13.41;100.00
32237;BME280;18726;44.732;10.550;2023-12-14T06:11:48;100360.56;;;13.58;100.00
32237;BME280;18726;44.732;10.550;2023-12-14T06:14:51;100362.91;;;13.60;100.00
32237;BME280;18726;44.732;10.550;2023-12-14T06:17:55;100362.13;;;13.56;100.00
32237;BME280;18726;44.732;10.550;2023-12-14T06:20:59;100360.88;;;13.49;100.00
32237;BME280;18726;44.732;10.550;2023-12-14T06:24:02;100376.16;;;13.58;100.00
32237;BME280;18726;44.732;10.550;2023-12-14T06:27:07;100383.22;;;13.62;100.00
32237;BME280;18726;44.732;10.550;2023-12-14T06:30:11;100388.09;;;13.42;100.00
32237;BME280;18726;44.732;10.550;2023-12-14T06:33:15;100401.00;;;13.45;100.00
32237;BME280;18726;44.732;10.550;2023-12-14T06:36:18;100394.59;;;13.34;100.00
32237;BME280;18726;44.732;10.550;2023-12-14T06:39:23;100399.66;;;13.66;100.00
32237;BME280;18726;44.732;10.550;2023-12-14T06:42:27;100408.22;;;13.64;100.00
32237;BME280;18726;44.732;10.550;2023-12-14T06:45:31;100406.63;;;13.63;100.00
32237;BME280;18726;44.732;10.550;2023-12-14T06:48:35;100409.06;;;13.72;100.00
32237;BME280;18726;44.732;10.550;2023-12-14T06:51:38;100417.19;;;13.65;100.00
32237;BME280;18726;44.732;10.550;2023-12-14T06:54:42;100414.03;;;13.63;100.00
32237;BME280;18726;44.732;10.550;2023-12-14T06:57:45;100416.84;;;13.70;100.00
32237;BME280;18726;44.732;10.550;2023-12-14T07:00:50;100429.94;;;13.54;100.00
32237;BME280;18726;44.732;10.550;2023-12-14T07:03:54;100430.91;;;13.72;100.00
32237;BME280;18726;44.732;10.550;2023-12-14T07:06:57;100445.91;;;13.89;100.00
32237;BME280;18726;44.732;10.550;2023-12-14T07:10:01;100452.84;;;13.79;100.00
32237;BME280;18726;44.732;10.550;2023-12-14T07:13:05;100454.09;;;13.89;100.00
32237;BME280;18726;44.732;10.550;2023-12-14T07:16:10;100450.69;;;13.99;100.00
32237;BME280;18726;44.732;10.550;2023-12-14T07:19:14;100449.16;;;14.01;100.00
32237;BME280;18726;44.732;10.550;2023-12-14T07:22:18;100454.81;;;13.82;100.00
32237;BME280;18726;44.732;10.550;2023-12-14T07:25:21;100461.50;;;13.84;100.00
32237;BME280;18726;44.732;10.550;2023-12-14T07:28:26;100465.38;;;13.87;100.00
32237;BME280;18726;44.732;10.550;2023-12-14T07:31:29;100474.78;;;13.90;100.00
32237;BME280;18726;44.732;10.550;2023-12-14T07:34:33;100483.78;;;13.57;100.00
32237;BME280;18726;44.732;10.550;2023-12-14T07:37:36;100489.97;;;13.54;100.00
32237;BME280;18726;44.732;10.550;2023-12-14T07:40:40;100490.28;;;13.78;100.00
32237;BME280;18726;44.732;10.550;2023-12-14T07:43:44;100495.06;;;13.89;100.00
32237;BME280;18726;44.732;10.550;2023-12-14T07:46:48;100501.28;;;13.89;100.00
32237;BME280;18726;44.732;10.550;2023-12-14T07:49:52;100503.28;;;13.92;100.00
32237;BME280;18726;44.732;10.550;2023-12-14T07:52:55;100519.78;;;13.69;100.00
32237;BME280;18726;44.732;10.550;2023-12-14T07:56:00;100517.34;;;13.61;100.00
32237;BME280;18726;44.732;10.550;2023-12-14T07:59:06;100515.16;;;13.43;100.00
32237;BME280;18726;44.732;10.550;2023-12-14T08:02:11;100515.97;;;13.17;100.00
32237;BME280;18726;44.732;10.550;2023-12-14T08:05:15;100526.16;;;13.21;100.00
32237;BME280;18726;44.732;10.550;2023-12-14T08:08:19;100536.41;;;13.27;100.00
32237;BME280;18726;44.732;10.550;2023-12-14T08:11:22;100550.97;;;13.38;100.00
32237;BME280;18726;44.732;10.550;2023-12-14T08:14:26;100549.28;;;13.30;100.00
32237;BME280;18726;44.732;10.550;2023-12-14T08:17:30;100556.41;;;13.38;100.00
32237;BME280;18726;44.732;10.550;2023-12-14T08:20:34;100556.72;;;13.33;100.00
32237;BME280;18726;44.732;10.550;2023-12-14T08:23:38;100556.28;;;13.58;100.00
32237;BME280;18726;44.732;10.550;2023-12-14T08:26:42;100558.31;;;13.64;100.00
32237;BME280;18726;44.732;10.550;2023-12-14T08:29:46;100563.63;;;13.80;100.00
32237;BME280;18726;44.732;10.550;2023-12-14T08:32:49;100573.31;;;14.07;100.00
32237;BME280;18726;44.732;10.550;2023-12-14T08:35:53;100581.34;;;14.27;100.00
32237;BME280;18726;44.732;10.550;2023-12-14T08:38:56;100585.97;;;14.23;100.00
32237;BME280;18726;44.732;10.550;2023-12-14T08:41:59;100581.03;;;14.02;100.00
32237;BME280;18726;44.732;10.550;2023-12-14T08:45:04;100595.75;;;13.94;100.00
32237;BME280;18726;44.732;10.550;2023-12-14T08:48:08;100599.66;;;13.93;100.00
32237;BME280;18726;44.732;10.550;2023-12-14T08:51:12;100604.00;;;13.97;100.00
32237;BME280;18726;44.732;10.550;2023-12-14T08:54:15;100605.94;;;14.27;100.00
32237;BME280;18726;44.732;10.550;2023-12-14T08:57:19;100617.59;;;14.24;100.00
32237;BME280;18726;44.732;10.550;2023-12-14T09:00:23;100626.38;;;14.40;100.00
32237;BME280;18726;44.732;10.550;2023-12-14T09:03:27;100635.84;;;14.46;100.00
32237;BME280;18726;44.732;10.550;2023-12-14T09:06:31;100636.38;;;14.59;100.00
32237;BME280;18726;44.732;10.550;2023-12-14T09:09:34;100644.19;;;14.60;100.00
32237;BME280;18726;44.732;10.550;2023-12-14T09:12:38;100644.81;;;14.43;100.00
32237;BME280;18726;44.732;10.550;2023-12-14T09:15:43;100646.91;;;14.27;100.00
32237;BME280;18726;44.732;10.550;2023-12-14T09:18:47;100654.50;;;14.40;100.00
32237;BME280;18726;44.732;10.550;2023-12-14T09:21:51;100661.25;;;14.50;100.00
32237;BME280;18726;44.732;10.550;2023-12-14T09:24:54;100668.41;;;14.58;100.00
32237;BME280;18726;44.732;10.550;2023-12-14T09:27:58;100664.63;;;14.70;100.00
32237;BME280;18726;44.732;10.550;2023-12-14T09:31:02;100673.28;;;14.79;100.00
32237;BME280;18726;44.732;10.550;2023-12-14T09:34:05;100687.16;;;14.97;100.00
32237;BME280;18726;44.732;10.550;2023-12-14T09:37:09;100685.19;;;14.94;100.00
32237;BME280;18726;44.732;10.550;2023-12-14T09:40:14;100690.81;;;15.11;100.00
32237;BME280;18726;44.732;10.550;2023-12-14T09:43:19;100701.09;;;15.22;100.00
32237;BME280;18726;44.732;10.550;2023-12-14T09:46:25;100693.31;;;15.31;100.00
32237;BME280;18726;44.732;10.550;2023-12-14T09:49:30;100692.50;;;15.23;100.00
32237;BME280;18726;44.732;10.550;2023-12-14T09:52:34;100693.31;;;15.31;100.00
32237;BME280;18726;44.732;10.550;2023-12-14T09:55:38;100697.63;;;15.28;100.00
32237;BME280;18726;44.732;10.550;2023-12-14T09:58:41;100703.28;;;15.09;100.00
32237;BME280;18726;44.732;10.550;2023-12-14T10:01:45;100701.13;;;15.25;100.00
32237;BME280;18726;44.732;10.550;2023-12-14T10:04:50;100699.03;;;15.56;100.00
32237;BME280;18726;44.732;10.550;2023-12-14T10:07:53;100706.31;;;15.85;100.00
32237;BME280;18726;44.732;10.550;2023-12-14T10:10:57;100704.91;;;16.09;98.32
32237;BME280;18726;44.732;10.550;2023-12-14T10:14:01;100700.91;;;15.99;97.59
32237;BME280;18726;44.732;10.550;2023-12-14T10:17:23;100703.59;;;15.92;99.67
32237;BME280;18726;44.732;10.550;2023-12-14T10:20:35;100712.06;;;16.35;98.14
32237;BME280;18726;44.732;10.550;2023-12-14T10:23:40;100707.22;;;16.07;95.90
32237;BME280;18726;44.732;10.550;2023-12-14T10:26:47;100716.03;;;16.41;95.59
32237;BME280;18726;44.732;10.550;2023-12-14T10:29:51;100713.09;;;16.88;96.23
32237;BME280;18726;44.732;10.550;2023-12-14T10:32:54;100716.69;;;17.53;88.26
32237;BME280;18726;44.732;10.550;2023-12-14T10:35:58;100720.25;;;17.61;83.38
32237;BME280;18726;44.732;10.550;2023-12-14T10:39:03;100723.78;;;17.86;83.82
32237;BME280;18726;44.732;10.550;2023-12-14T10:42:09;100717.81;;;18.16;84.08
32237;BME280;18726;44.732;10.550;2023-12-14T10:45:15;100721.41;;;17.84;81.51
32237;BME280;18726;44.732;10.550;2023-12-14T10:48:20;100724.53;;;18.04;84.28
32237;BME280;18726;44.732;10.550;2023-12-14T10:51:25;100721.59;;;18.58;79.73
32237;BME280;18726;44.732;10.550;2023-12-14T10:54:31;100722.00;;;21.13;68.47
32237;BME280;18726;44.732;10.550;2023-12-14T10:57:35;100718.84;;;24.59;53.90
32237;BME280;18726;44.732;10.550;2023-12-14T11:00:42;100719.84;;;26.14;46.70
32237;BME280;18726;44.732;10.550;2023-12-14T11:03:48;100722.91;;;26.50;46.00
32237;BME280;18726;44.732;10.550;2023-12-14T11:06:54;100728.69;;;25.52;47.41
32237;BME280;18726;44.732;10.550;2023-12-14T11:09:59;100727.81;;;25.30;48.03
32237;BME280;18726;44.732;10.550;2023-12-14T11:13:04;100738.75;;;24.57;51.17
32237;BME280;18726;44.732;10.550;2023-12-14T11:16:09;100732.59;;;23.92;48.91
32237;BME280;18726;44.732;10.550;2023-12-14T11:22:29;100737.69;;;24.10;50.59
32237;BME280;18726;44.732;10.550;2023-12-14T11:25:33;100728.09;;;23.82;51.70
32237;BME280;18726;44.732;10.550;2023-12-14T11:28:38;100732.78;;;23.69;51.26
32237;BME280;18726;44.732;10.550;2023-12-14T11:31:45;100728.16;;;23.13;54.93
32237;BME280;18726;44.732;10.550;2023-12-14T11:34:49;100741.16;;;23.16;61.16
32237;BME280;18726;44.732;10.550;2023-12-14T11:37:53;100725.69;;;23.35;60.55
32237;BME280;18726;44.732;10.550;2023-12-14T11:41:00;100728.28;;;23.75;57.17
32237;BME280;18726;44.732;10.550;2023-12-14T11:44:04;100738.50;;;23.78;55.40
32237;BME280;18726;44.732;10.550;2023-12-14T11:47:07;100751.00;;;23.53;56.14
32237;BME280;18726;44.732;10.550;2023-12-14T11:50:12;100760.22;;;23.67;58.29
32237;BME280;18726;44.732;10.550;2023-12-14T11:53:16;100759.03;;;22.79;58.91
32237;BME280;18726;44.732;10.550;2023-12-14T11:56:20;100753.38;;;22.63;62.27
32237;BME280;18726;44.732;10.550;2023-12-14T12:02:51;100754.44;;;22.30;62.95
32237;BME280;18726;44.732;10.550;2023-12-14T12:05:47;100754.69;;;21.45;63.73
32237;BME280;18726;44.732;10.550;2023-12-14T12:08:52;100748.25;;;21.29;69.33
32237;BME280;18726;44.732;10.550;2023-12-14T12:11:59;100765.69;;;20.61;68.37
32237;BME280;18726;44.732;10.550;2023-12-14T12:15:03;100760.41;;;20.43;71.20
32237;BME280;18726;44.732;10.550;2023-12-14T12:18:09;100760.03;;;20.75;75.42
32237;BME280;18726;44.732;10.550;2023-12-14T12:21:13;100754.66;;;19.86;66.71
32237;BME280;18726;44.732;10.550;2023-12-14T12:24:17;100753.78;;;19.93;74.67
32237;BME280;18726;44.732;10.550;2023-12-14T12:27:21;100763.19;;;19.99;71.54
32237;BME280;18726;44.732;10.550;2023-12-14T12:30:25;100753.25;;;20.49;74.73
32237;BME280;18726;44.732;10.550;2023-12-14T12:33:28;100752.16;;;20.74;73.48
32237;BME280;18726;44.732;10.550;2023-12-14T12:36:32;100753.09;;;20.60;69.93
32237;BME280;18726;44.732;10.550;2023-12-14T12:39:36;100756.63;;;20.61;69.90
32237;BME280;18726;44.732;10.550;2023-12-14T12:42:40;100746.25;;;20.38;67.91
32237;BME280;18726;44.732;10.550;2023-12-14T12:45:44;100754.38;;;20.14;70.81
32237;BME280;18726;44.732;10.550;2023-12-14T12:48:47;100758.97;;;20.24;67.26
32237;BME280;18726;44.732;10.550;2023-12-14T12:51:51;100763.38;;;20.56;70.67
32237;BME280;18726;44.732;10.550;2023-12-14T12:54:55;100767.94;;;20.73;70.08
32237;BME280;18726;44.732;10.550;2023-12-14T12:57:58;100761.75;;;20.62;68.68
32237;BME280;18726;44.732;10.550;2023-12-14T13:01:08;100757.34;;;20.68;71.82
32237;BME280;18726;44.732;10.550;2023-12-14T13:04:21;100759.50;;;20.84;72.89
32237;BME280;18726;44.732;10.550;2023-12-14T13:07:25;100762.28;;;20.80;72.72
32237;BME280;18726;44.732;10.550;2023-12-14T13:10:29;100758.03;;;20.76;71.77
32237;BME280;18726;44.732;10.550;2023-12-14T13:13:33;100754.84;;;20.47;70.33
32237;BME280;18726;44.732;10.550;2023-12-14T13:16:37;100751.63;;;20.14;73.32
32237;BME280;18726;44.732;10.550;2023-12-14T13:19:41;100750.41;;;20.19;74.31
32237;BME280;18726;44.732;10.550;2023-12-14T13:22:44;100756.97;;;19.91;72.38
32237;BME280;18726;44.732;10.550;2023-12-14T13:25:48;100757.75;;;19.92;74.86
32237;BME280;18726;44.732;10.550;2023-12-14T13:28:52;100762.59;;;19.77;76.17
32237;BME280;18726;44.732;10.550;2023-12-14T13:31:56;100763.53;;;19.60;78.19
32237;BME280;18726;44.732;10.550;2023-12-14T13:34:59;100763.97;;;19.47;75.84
32237;BME280;18726;44.732;10.550;2023-12-14T13:38:03;100770.69;;;19.43;77.05
32237;BME280;18726;44.732;10.550;2023-12-14T13:41:10;100772.69;;;19.39;76.89
32237;BME280;18726;44.732;10.550;2023-12-14T13:44:14;100783.34;;;19.37;77.09
32237;BME280;18726;44.732;10.550;2023-12-14T13:47:18;100785.06;;;19.09;77.55
32237;BME280;18726;44.732;10.550;2023-12-14T13:50:21;100794.22;;;18.88;81.00
32237;BME280;18726;44.732;10.550;2023-12-14T13:53:26;100794.63;;;18.87;78.88
32237;BME280;18726;44.732;10.550;2023-12-14T13:56:30;100811.13;;;18.91;78.71
32237;BME280;18726;44.732;10.550;2023-12-14T13:59:34;100810.75;;;18.81;79.49
32237;BME280;18726;44.732;10.550;2023-12-14T14:02:38;100815.94;;;18.58;77.35
32237;BME280;18726;44.732;10.550;2023-12-14T14:05:41;100807.34;;;18.42;80.42
32237;BME280;18726;44.732;10.550;2023-12-14T14:08:47;100803.81;;;18.41;85.09
32237;BME280;18726;44.732;10.550;2023-12-14T14:11:51;100817.13;;;18.53;83.55
32237;BME280;18726;44.732;10.550;2023-12-14T14:14:55;100817.09;;;18.57;82.22
32237;BME280;18726;44.732;10.550;2023-12-14T14:17:58;100819.88;;;18.57;81.49
32237;BME280;18726;44.732;10.550;2023-12-14T14:21:03;100822.66;;;18.46;82.27
32237;BME280;18726;44.732;10.550;2023-12-14T14:24:10;100830.13;;;18.35;83.49
32237;BME280;18726;44.732;10.550;2023-12-14T14:27:14;100842.72;;;18.15;85.25
32237;BME280;18726;44.732;10.550;2023-12-14T14:30:18;100838.41;;;18.00;82.77
32237;BME280;18726;44.732;10.550;2023-12-14T14:33:22;100839.56;;;17.92;87.24
32237;BME280;18726;44.732;10.550;2023-12-14T14:36:26;100837.63;;;17.96;85.79
32237;BME280;18726;44.732;10.550;2023-12-14T14:39:30;100852.16;;;17.82;85.02
32237;BME280;18726;44.732;10.550;2023-12-14T14:42:34;100863.91;;;17.75;86.13
32237;BME280;18726;44.732;10.550;2023-12-14T14:45:37;100863.06;;;17.53;84.43
32237;BME280;18726;44.732;10.550;2023-12-14T14:48:42;100859.09;;;17.40;90.75
32237;BME280;18726;44.732;10.550;2023-12-14T14:51:46;100857.53;;;17.43;88.45
32237;BME280;18726;44.732;10.550;2023-12-14T14:54:50;100858.28;;;17.33;88.85
32237;BME280;18726;44.732;10.550;2023-12-14T14:57:53;100868.50;;;17.29;88.95
32237;BME280;18726;44.732;10.550;2023-12-14T15:00:57;100877.44;;;17.15;92.91
32237;BME280;18726;44.732;10.550;2023-12-14T15:04:01;100895.88;;;17.18;94.86
32237;BME280;18726;44.732;10.550;2023-12-14T15:07:05;100897.47;;;17.19;91.20
32237;BME280;18726;44.732;10.550;2023-12-14T15:10:09;100894.28;;;17.03;91.00
32237;BME280;18726;44.732;10.550;2023-12-14T15:13:13;100897.31;;;16.87;89.93
32237;BME280;18726;44.732;10.550;2023-12-14T15:16:18;100899.56;;;16.71;96.46
32237;BME280;18726;44.732;10.550;2023-12-14T15:19:22;100905.13;;;16.85;95.50
32237;BME280;18726;44.732;10.550;2023-12-14T15:22:25;100910.25;;;16.86;92.99
32237;BME280;18726;44.732;10.550;2023-12-14T15:25:29;100920.72;;;16.70;92.04
32237;BME280;18726;44.732;10.550;2023-12-14T15:28:33;100928.34;;;16.47;92.60
32237;BME280;18726;44.732;10.550;2023-12-14T15:31:37;100932.25;;;16.42;95.94
32237;BME280;18726;44.732;10.550;2023-12-14T15:34:40;100931.75;;;16.30;95.29
32237;BME280;18726;44.732;10.550;2023-12-14T15:37:44;100942.97;;;16.17;99.71
32237;BME280;18726;44.732;10.550;2023-12-14T15:40:47;100947.94;;;16.01;99.71
32237;BME280;18726;44.732;10.550;2023-12-14T15:43:51;100947.59;;;16.06;100.00
32237;BME280;18726;44.732;10.550;2023-12-14T15:46:55;100965.63;;;16.07;100.00